Time;durP1;ratioP1;P1;durP2;ratioP2;P2;SDS_P1;SDS_P2;PMS_P1;PMS_P2;Temp;Humidity;BMP_temperature;BMP_pressure;BME280_temperature;BME280_humidity;BME280_pressure;Samples;Min_cycle;Max_cycle;Signal;HPM_P1;HPM_P2
2023/08/22 00:00:35;;;;;;;;;1.75;1.75;;;;;;;;5031235;28;8769;-84
2023/08/22 00:03:02;;;;;;;;;1.50;1.50;;;;;;;;5031330;28;8874;-84
2023/08/22 00:05:29;;;;;;;;;2.25;2.00;;;;;;;;5032016;28;9737;-84
2023/08/22 00:08:00;;;;;;;;;2.00;2.00;;;;;;;;5032863;28;8860;-84
2023/08/22 00:10:27;;;;;;;;;0.50;0.50;;;;;;;;5027484;28;9181;-84
2023/08/22 00:12:55;;;;;;;;;1.00;1.00;;;;;;;;5035600;28;8848;-85
2023/08/22 00:15:25;;;;;;;;;0.75;0.75;;;;;;;;5034954;28;8975;-84
2023/08/22 00:17:52;;;;;;;;;0.75;0.75;;;;;;;;5033162;28;8960;-83
2023/08/22 00:20:20;;;;;;;;;0.75;0.75;;;;;;;;5033401;28;8872;-83
2023/08/22 00:22:47;;;;;;;;;0.75;0.75;;;;;;;;5033780;28;8875;-84
2023/08/22 00:25:14;;;;;;;;;1.50;1.50;;;;;;;;5029695;28;8953;-83
2023/08/22 00:27:42;;;;;;;;;1.00;1.00;;;;;;;;5030021;28;8844;-84
2023/08/22 00:30:09;;;;;;;;;0.75;0.75;;;;;;;;5029422;28;8871;-83
2023/08/22 00:32:38;;;;;;;;;1.00;1.00;;;;;;;;5023318;28;8875;-83
2023/08/22 00:35:06;;;;;;;;;0.25;0.25;;;;;;;;5023409;28;8872;-83
2023/08/22 00:37:33;;;;;;;;;1.75;1.75;;;;;;;;5027845;28;8890;-84
2023/08/22 00:40:05;;;;;;;;;1.00;1.00;;;;;;;;5028788;28;9622;-83
2023/08/22 00:42:32;;;;;;;;;2.75;2.75;;;;;;;;5029131;28;8862;-83
2023/08/22 00:44:59;;;;;;;;;1.00;1.00;;;;;;;;5029582;28;9544;-83
2023/08/22 00:47:27;;;;;;;;;4.00;2.00;;;;;;;;5029943;28;8860;-86
2023/08/22 00:49:56;;;;;;;;;1.25;1.25;;;;;;;;5029634;28;8840;-83
2023/08/22 00:52:23;;;;;;;;;1.75;1.75;;;;;;;;5031219;28;8894;-83
2023/08/22 00:54:51;;;;;;;;;1.00;1.00;;;;;;;;5030868;28;8868;-86
2023/08/22 00:57:18;;;;;;;;;2.00;2.00;;;;;;;;5029674;28;8868;-83
2023/08/22 00:59:46;;;;;;;;;0.75;0.75;;;;;;;;5025854;28;8848;-84
2023/08/22 01:02:14;;;;;;;;;1.00;1.00;;;;;;;;5028849;28;8911;-84
2023/08/22 01:04:41;;;;;;;;;1.75;1.75;;;;;;;;5028996;28;8879;-84
2023/08/22 01:07:15;;;;;;;;;1.00;1.00;;;;;;;;5029143;28;8862;-84
2023/08/22 01:09:46;;;;;;;;;1.25;0.75;;;;;;;;5028174;28;8872;-83
2023/08/22 01:12:19;;;;;;;;;1.75;1.75;;;;;;;;5027813;28;9548;-84
2023/08/22 01:14:52;;;;;;;;;1.75;0.00;;;;;;;;5029102;28;8878;-84
2023/08/22 01:17:20;;;;;;;;;0.25;0.25;;;;;;;;5028404;28;8876;-83
2023/08/22 01:19:47;;;;;;;;;1.00;1.00;;;;;;;;5023878;28;8872;-84
2023/08/22 01:22:16;;;;;;;;;1.75;1.50;;;;;;;;5028943;28;8863;-83
2023/08/22 01:24:43;;;;;;;;;2.00;2.00;;;;;;;;5027880;28;8860;-84
2023/08/22 01:27:13;;;;;;;;;2.00;2.00;;;;;;;;5027475;28;8868;-84
2023/08/22 01:29:45;;;;;;;;;2.25;1.75;;;;;;;;5028826;28;8891;-84
2023/08/22 01:32:19;;;;;;;;;1.75;1.75;;;;;;;;5028648;28;8788;-84
2023/08/22 01:34:46;;;;;;;;;3.00;2.00;;;;;;;;5028765;28;8872;-84
2023/08/22 01:37:16;;;;;;;;;1.25;1.25;;;;;;;;5028729;28;8841;-84
2023/08/22 01:39:44;;;;;;;;;2.00;2.00;;;;;;;;5029049;28;8974;-83
2023/08/22 01:42:11;;;;;;;;;1.50;1.25;;;;;;;;5029312;28;8870;-84
2023/08/22 01:44:39;;;;;;;;;1.75;1.75;;;;;;;;5027862;28;8872;-83
2023/08/22 01:47:06;;;;;;;;;3.25;1.00;;;;;;;;5022620;28;8868;-84
2023/08/22 01:49:37;;;;;;;;;1.75;1.75;;;;;;;;5032629;28;8883;-82
2023/08/22 01:52:07;;;;;;;;;1.50;1.50;;;;;;;;5035117;28;8903;-84
2023/08/22 01:54:38;;;;;;;;;2.25;1.00;;;;;;;;5035585;28;8853;-84
2023/08/22 01:57:05;;;;;;;;;0.75;0.75;;;;;;;;5036341;28;8856;-84
2023/08/22 01:59:32;;;;;;;;;1.75;1.75;;;;;;;;5035601;28;8852;-84
2023/08/22 02:02:00;;;;;;;;;1.00;1.00;;;;;;;;5028947;28;8796;-83
2023/08/22 02:04:27;;;;;;;;;1.00;1.00;;;;;;;;5029245;28;8860;-84
2023/08/22 02:06:54;;;;;;;;;0.75;0.75;;;;;;;;5028221;28;8869;-83
2023/08/22 02:09:22;;;;;;;;;1.75;1.75;;;;;;;;5028380;28;8860;-84
2023/08/22 02:11:50;;;;;;;;;1.00;1.00;;;;;;;;5028797;28;8878;-85
2023/08/22 02:14:18;;;;;;;;;1.75;1.75;;;;;;;;5028845;28;8844;-83
2023/08/22 02:16:45;;;;;;;;;3.75;2.25;;;;;;;;5028041;28;9770;-83
2023/08/22 02:19:12;;;;;;;;;2.00;2.00;;;;;;;;5027653;28;8841;-84
2023/08/22 02:21:39;;;;;;;;;1.75;1.75;;;;;;;;5028550;28;8852;-83
2023/08/22 02:24:07;;;;;;;;;1.50;1.50;;;;;;;;5028326;28;8999;-83
2023/08/22 02:26:34;;;;;;;;;2.00;2.00;;;;;;;;5028368;28;8979;-84
2023/08/22 02:29:03;;;;;;;;;2.00;2.00;;;;;;;;5029789;28;9619;-83
2023/08/22 02:31:33;;;;;;;;;1.75;1.75;;;;;;;;5029620;28;8797;-84
2023/08/22 02:34:00;;;;;;;;;1.50;1.50;;;;;;;;5028986;28;8915;-84
2023/08/22 02:36:29;;;;;;;;;1.25;1.25;;;;;;;;5028188;28;8848;-84
2023/08/22 02:38:57;;;;;;;;;2.00;2.00;;;;;;;;5027618;28;8876;-84
2023/08/22 02:41:24;;;;;;;;;2.50;2.50;;;;;;;;5028227;28;9663;-84
2023/08/22 02:43:51;;;;;;;;;1.00;1.00;;;;;;;;5027170;28;8997;-85
2023/08/22 02:46:20;;;;;;;;;1.50;1.50;;;;;;;;5028178;28;8949;-84
2023/08/22 02:48:47;;;;;;;;;2.00;2.00;;;;;;;;5027266;28;8845;-84
2023/08/22 02:51:14;;;;;;;;;1.25;1.25;;;;;;;;5027515;28;8860;-83
2023/08/22 02:53:42;;;;;;;;;1.50;1.50;;;;;;;;5025203;28;8860;-84
2023/08/22 02:56:09;;;;;;;;;2.00;2.00;;;;;;;;5027919;28;8938;-87
2023/08/22 02:58:36;;;;;;;;;1.75;1.75;;;;;;;;5025355;28;8862;-84
2023/08/22 03:01:04;;;;;;;;;2.50;2.25;;;;;;;;5028465;28;8812;-84
2023/08/22 03:03:34;;;;;;;;;1.00;1.00;;;;;;;;5031899;28;8884;-82
2023/08/22 03:06:02;;;;;;;;;3.25;1.75;;;;;;;;5026810;28;8891;-82
2023/08/22 03:08:33;;;;;;;;;2.25;2.00;;;;;;;;5031044;28;8856;-83
2023/08/22 03:11:01;;;;;;;;;1.00;1.00;;;;;;;;5024715;28;8841;-83
2023/08/22 03:13:29;;;;;;;;;1.75;1.75;;;;;;;;5028467;28;9527;-83
2023/08/22 03:15:59;;;;;;;;;1.25;1.25;;;;;;;;5024067;28;8864;-83
2023/08/22 03:18:27;;;;;;;;;1.25;1.25;;;;;;;;5031014;28;8876;-83
2023/08/22 03:20:57;;;;;;;;;1.00;1.00;;;;;;;;5031758;28;8845;-82
2023/08/22 03:23:24;;;;;;;;;1.25;1.25;;;;;;;;5033209;28;8844;-83
2023/08/22 03:25:59;;;;;;;;;1.25;1.25;;;;;;;;5036987;28;9298;-83
2023/08/22 03:28:26;;;;;;;;;2.50;1.75;;;;;;;;5037807;28;8967;-82
2023/08/22 03:30:58;;;;;;;;;3.50;2.75;;;;;;;;5036841;28;8947;-83
2023/08/22 03:33:25;;;;;;;;;1.75;1.75;;;;;;;;5038036;28;8862;-82
2023/08/22 03:35:54;;;;;;;;;1.00;1.00;;;;;;;;5037505;28;8852;-83
2023/08/22 03:38:24;;;;;;;;;2.00;2.00;;;;;;;;5032140;28;9037;-82
2023/08/22 03:40:52;;;;;;;;;2.00;1.50;;;;;;;;5031347;28;8848;-83
2023/08/22 03:43:19;;;;;;;;;3.00;1.00;;;;;;;;5026372;28;8874;-83
2023/08/22 03:45:47;;;;;;;;;1.75;1.75;;;;;;;;5031003;28;8886;-83
2023/08/22 03:48:14;;;;;;;;;2.00;2.00;;;;;;;;5025205;28;8846;-83
2023/08/22 03:50:43;;;;;;;;;1.00;1.00;;;;;;;;5031004;28;9790;-83
2023/08/22 03:53:11;;;;;;;;;2.00;2.00;;;;;;;;5030009;28;8856;-82
2023/08/22 03:55:40;;;;;;;;;2.00;2.00;;;;;;;;5024404;28;8867;-83
2023/08/22 03:58:07;;;;;;;;;2.75;1.00;;;;;;;;5030340;28;8876;-83
2023/08/22 04:00:35;;;;;;;;;2.00;2.00;;;;;;;;5031288;28;8861;-82
2023/08/22 04:03:03;;;;;;;;;2.25;1.50;;;;;;;;5040741;28;8872;-83
2023/08/22 04:05:30;;;;;;;;;2.25;2.25;;;;;;;;5030770;28;8872;-80
2023/08/22 04:07:57;;;;;;;;;2.00;2.00;;;;;;;;5031009;28;8852;-81
2023/08/22 04:10:25;;;;;;;;;1.25;1.25;;;;;;;;5030740;28;8991;-81
2023/08/22 04:12:54;;;;;;;;;2.75;2.75;;;;;;;;5029661;28;8884;-82
2023/08/22 04:15:21;;;;;;;;;2.75;2.75;;;;;;;;5029274;28;8840;-82
2023/08/22 04:17:48;;;;;;;;;2.00;2.00;;;;;;;;5029414;28;8846;-80
2023/08/22 04:20:18;;;;;;;;;1.75;1.75;;;;;;;;5027262;28;8905;-80
2023/08/22 04:22:45;;;;;;;;;2.00;2.00;;;;;;;;5029241;28;8868;-79
2023/08/22 04:25:13;;;;;;;;;1.50;1.50;;;;;;;;5029078;28;9660;-79
2023/08/22 04:27:40;;;;;;;;;1.25;1.00;;;;;;;;5018531;28;8863;-79
2023/08/22 04:30:09;;;;;;;;;3.00;3.00;;;;;;;;5026514;28;8879;-79
2023/08/22 04:32:38;;;;;;;;;2.50;2.50;;;;;;;;5027494;28;8874;-80
2023/08/22 04:35:06;;;;;;;;;1.00;1.00;;;;;;;;5027315;28;8879;-81
2023/08/22 04:37:33;;;;;;;;;1.25;1.25;;;;;;;;5026620;28;8844;-80
2023/08/22 04:40:03;;;;;;;;;2.00;2.00;;;;;;;;5026392;28;8851;-79
2023/08/22 04:42:30;;;;;;;;;2.75;2.75;;;;;;;;5026064;28;8863;-81
2023/08/22 04:44:58;;;;;;;;;2.50;1.50;;;;;;;;5027674;28;8853;-80
2023/08/22 04:47:27;;;;;;;;;2.75;2.75;;;;;;;;5027231;28;8856;-80
2023/08/22 04:49:54;;;;;;;;;3.75;3.75;;;;;;;;5026994;28;8991;-80
2023/08/22 04:52:21;;;;;;;;;2.75;2.75;;;;;;;;5026539;28;8837;-81
2023/08/22 04:54:48;;;;;;;;;3.25;2.50;;;;;;;;5027385;28;8876;-80
2023/08/22 04:57:18;;;;;;;;;2.25;1.25;;;;;;;;5028066;28;8864;-81
2023/08/22 04:59:45;;;;;;;;;2.75;2.75;;;;;;;;5029585;28;8867;-80
2023/08/22 05:02:12;;;;;;;;;4.25;2.75;;;;;;;;5021563;28;8899;-79
2023/08/22 05:04:41;;;;;;;;;2.00;2.00;;;;;;;;5033750;28;8876;-78
2023/08/22 05:07:09;;;;;;;;;2.75;2.75;;;;;;;;5034393;28;8878;-81
2023/08/22 05:09:37;;;;;;;;;4.00;4.00;;;;;;;;5034276;28;8991;-81
2023/08/22 05:12:04;;;;;;;;;6.75;3.25;;;;;;;;5028644;28;8874;-80
2023/08/22 05:14:33;;;;;;;;;4.00;3.67;;;;;;;;5029756;28;8856;-81
2023/08/22 05:17:03;;;;;;;;;5.25;3.50;;;;;;;;5028203;28;8860;-81
2023/08/22 05:19:30;;;;;;;;;0.75;0.75;;;;;;;;5028578;28;8848;-81
2023/08/22 05:21:59;;;;;;;;;3.00;3.00;;;;;;;;5027995;28;8848;-80
2023/08/22 05:24:26;;;;;;;;;1.00;1.00;;;;;;;;5027065;28;8848;-80
2023/08/22 05:26:53;;;;;;;;;2.00;2.00;;;;;;;;5027985;28;8890;-80
2023/08/22 05:29:20;;;;;;;;;6.75;3.75;;;;;;;;5027841;28;8879;-81
2023/08/22 05:31:49;;;;;;;;;4.50;3.75;;;;;;;;5027002;28;8785;-80
2023/08/22 05:34:17;;;;;;;;;4.75;3.50;;;;;;;;5027983;28;8868;-85
2023/08/22 05:36:44;;;;;;;;;2.75;2.75;;;;;;;;5028604;28;8892;-83
2023/08/22 05:39:13;;;;;;;;;2.25;2.25;;;;;;;;5028854;28;8864;-81
2023/08/22 05:41:40;;;;;;;;;4.25;4.25;;;;;;;;5028279;28;8860;-81
2023/08/22 05:44:07;;;;;;;;;3.75;3.75;;;;;;;;5029019;28;8963;-80
2023/08/22 05:46:34;;;;;;;;;4.00;3.00;;;;;;;;5028362;28;8875;-81
2023/08/22 05:49:02;;;;;;;;;4.00;4.00;;;;;;;;5027947;28;8863;-82
2023/08/22 05:51:29;;;;;;;;;2.50;2.50;;;;;;;;5028295;28;8884;-80
2023/08/22 05:53:57;;;;;;;;;0.75;0.75;;;;;;;;5027583;28;8887;-80
2023/08/22 05:56:25;;;;;;;;;4.75;4.75;;;;;;;;5027627;28;8876;-81
2023/08/22 05:58:52;;;;;;;;;3.50;3.00;;;;;;;;5027676;28;8859;-81
2023/08/22 06:01:21;;;;;;;;;3.25;3.25;;;;;;;;5026881;28;8988;-81
2023/08/22 06:03:48;;;;;;;;;5.00;3.75;;;;;;;;5027549;28;8854;-81
2023/08/22 06:06:15;;;;;;;;;2.25;2.25;;;;;;;;5028284;28;8898;-81
2023/08/22 06:08:42;;;;;;;;;3.75;3.75;;;;;;;;5027378;28;8850;-82
2023/08/22 06:11:09;;;;;;;;;2.75;2.75;;;;;;;;5027684;28;8850;-81
2023/08/22 06:13:38;;;;;;;;;4.00;2.75;;;;;;;;5027379;28;8852;-81
2023/08/22 06:16:05;;;;;;;;;3.75;3.75;;;;;;;;5027632;28;8883;-81
2023/08/22 06:18:32;;;;;;;;;3.75;3.75;;;;;;;;5027314;28;8864;-80
2023/08/22 06:21:02;;;;;;;;;4.25;4.00;;;;;;;;5028160;28;8875;-81
2023/08/22 06:23:30;;;;;;;;;3.50;3.50;;;;;;;;5026451;28;8839;-81
2023/08/22 06:25:57;;;;;;;;;2.25;2.25;;;;;;;;5028083;28;8865;-81
2023/08/22 06:28:24;;;;;;;;;3.75;3.75;;;;;;;;5026950;28;8913;-80
2023/08/22 06:30:53;;;;;;;;;4.50;3.75;;;;;;;;5023097;28;8810;-79
2023/08/22 06:33:20;;;;;;;;;4.00;4.00;;;;;;;;5036177;28;8856;-78
2023/08/22 06:35:47;;;;;;;;;4.00;4.00;;;;;;;;5029166;28;8855;-75
2023/08/22 06:38:14;;;;;;;;;4.50;4.50;;;;;;;;5032490;28;8860;-75
2023/08/22 06:40:42;;;;;;;;;4.00;4.00;;;;;;;;5035971;28;8983;-80
2023/08/22 06:43:09;;;;;;;;;4.00;4.00;;;;;;;;5034622;28;8852;-79
2023/08/22 06:45:36;;;;;;;;;5.50;4.00;;;;;;;;5036824;28;8876;-78
2023/08/22 06:48:06;;;;;;;;;5.00;5.00;;;;;;;;5035425;28;8864;-78
2023/08/22 06:50:33;;;;;;;;;7.25;6.00;;;;;;;;5032460;28;8990;-77
2023/08/22 06:53:02;;;;;;;;;8.75;8.75;;;;;;;;5031115;28;8852;-78
2023/08/22 06:55:30;;;;;;;;;9.75;9.00;;;;;;;;5030875;28;8883;-83
2023/08/22 06:57:58;;;;;;;;;9.25;8.00;;;;;;;;5030517;28;8860;-84
2023/08/22 07:00:25;;;;;;;;;9.75;8.75;;;;;;;;5030344;28;8795;-82
2023/08/22 07:02:53;;;;;;;;;9.00;9.00;;;;;;;;5030970;28;9018;-80
2023/08/22 07:05:22;;;;;;;;;6.75;6.75;;;;;;;;5030728;28;8881;-85
2023/08/22 07:07:49;;;;;;;;;9.00;6.75;;;;;;;;5031315;28;8873;-83
2023/08/22 07:10:16;;;;;;;;;7.20;7.20;;;;;;;;5030369;28;8852;-80
2023/08/22 07:12:43;;;;;;;;;6.40;6.40;;;;;;;;5032100;28;8874;-88
2023/08/22 07:15:14;;;;;;;;;6.60;5.40;;;;;;;;5031319;28;8876;-84
2023/08/22 07:17:41;;;;;;;;;6.80;5.20;;;;;;;;5033655;28;8860;-81
2023/08/22 07:20:09;;;;;;;;;3.40;3.40;;;;;;;;5033370;28;8947;-82
2023/08/22 07:22:38;;;;;;;;;4.60;4.60;;;;;;;;5031723;28;8860;-82
2023/08/22 07:25:06;;;;;;;;;6.60;6.60;;;;;;;;5030146;28;8941;-85
2023/08/22 07:27:33;;;;;;;;;8.00;6.20;;;;;;;;5031064;28;8883;-83
2023/08/22 07:30:01;;;;;;;;;7.40;5.80;;;;;;;;5030703;28;8874;-85
2023/08/22 07:32:28;;;;;;;;;4.40;3.80;;;;;;;;5030439;28;8813;-79
2023/08/22 07:34:56;;;;;;;;;62.25;41.50;;;;;;;;5029924;28;8984;-81
2023/08/22 07:37:24;;;;;;;;;9.20;9.20;;;;;;;;5030005;28;9760;-79
2023/08/22 07:39:52;;;;;;;;;5.80;5.80;;;;;;;;5029909;28;8978;-78
2023/08/22 07:42:19;;;;;;;;;5.80;5.80;;;;;;;;5030199;28;8840;-81
2023/08/22 07:44:50;;;;;;;;;6.80;6.80;;;;;;;;5029423;28;8854;-80
2023/08/22 07:47:22;;;;;;;;;27.00;24.20;;;;;;;;5028335;28;8983;-78
2023/08/22 07:49:49;;;;;;;;;6.20;6.20;;;;;;;;5030508;28;8883;-80
2023/08/22 07:52:16;;;;;;;;;26.20;19.40;;;;;;;;5029264;28;8860;-80
2023/08/22 07:54:48;;;;;;;;;18.20;14.80;;;;;;;;5029673;28;8860;-79
2023/08/22 07:57:16;;;;;;;;;6.40;5.00;;;;;;;;5029288;28;9720;-79
2023/08/22 07:59:44;;;;;;;;;6.60;6.20;;;;;;;;5030033;28;8864;-79
2023/08/22 08:02:13;;;;;;;;;5.40;5.40;;;;;;;;5027057;28;9598;-80
2023/08/22 08:04:40;;;;;;;;;5.80;5.80;;;;;;;;5029950;28;8854;-79
2023/08/22 08:07:07;;;;;;;;;14.60;12.20;;;;;;;;5029766;28;8858;-79
2023/08/22 08:09:38;;;;;;;;;7.00;7.00;;;;;;;;5029749;28;8880;-79
2023/08/22 08:12:06;;;;;;;;;9.40;8.20;;;;;;;;5030353;28;8987;-78
2023/08/22 08:14:35;;;;;;;;;5.20;5.20;;;;;;;;5032101;28;8876;-82
2023/08/22 08:17:05;;;;;;;;;6.00;6.00;;;;;;;;5034445;28;8916;-78
2023/08/22 08:19:32;;;;;;;;;5.20;5.20;;;;;;;;5035440;28;8860;-78
2023/08/22 08:22:01;;;;;;;;;7.20;7.20;;;;;;;;5034439;28;8860;-79
2023/08/22 08:24:28;;;;;;;;;5.20;4.80;;;;;;;;5035228;28;8876;-78
2023/08/22 08:26:55;;;;;;;;;7.80;6.00;;;;;;;;5031017;28;8895;-79
2023/08/22 08:29:23;;;;;;;;;7.40;6.80;;;;;;;;5029062;28;8892;-84
2023/08/22 08:31:56;;;;;;;;;7.00;5.80;;;;;;;;5028185;28;8923;-81
2023/08/22 08:34:29;;;;;;;;;4.80;4.80;;;;;;;;5028939;28;8882;-80
2023/08/22 08:36:58;;;;;;;;;5.80;4.80;;;;;;;;5017677;28;8853;-80
2023/08/22 08:39:25;;;;;;;;;6.60;6.20;;;;;;;;5028182;28;8882;-79
2023/08/22 08:42:01;;;;;;;;;5.60;4.20;;;;;;;;5029564;28;9436;-82
2023/08/22 08:44:28;;;;;;;;;11.20;9.00;;;;;;;;5028912;28;8840;-79
2023/08/22 08:46:57;;;;;;;;;9.80;9.80;;;;;;;;5029473;28;8949;-78
2023/08/22 08:49:25;;;;;;;;;8.20;7.60;;;;;;;;5028453;28;8872;-79
2023/08/22 08:51:53;;;;;;;;;8.80;8.80;;;;;;;;5029588;28;8880;-78
2023/08/22 08:54:22;;;;;;;;;8.00;7.20;;;;;;;;5029463;28;9014;-80
2023/08/22 08:56:49;;;;;;;;;9.60;8.00;;;;;;;;5030514;28;8874;-78
2023/08/22 08:59:16;;;;;;;;;8.60;7.00;;;;;;;;5028041;28;8886;-77
2023/08/22 09:01:49;;;;;;;;;6.60;6.40;;;;;;;;5028221;28;8806;-80
2023/08/22 09:04:21;;;;;;;;;6.60;5.40;;;;;;;;5027398;28;9646;-81
2023/08/22 09:06:48;;;;;;;;;10.00;9.00;;;;;;;;5028126;28;8848;-77
2023/08/22 09:09:17;;;;;;;;;4.00;4.00;;;;;;;;5028017;28;8871;-77
2023/08/22 09:11:45;;;;;;;;;4.00;4.00;;;;;;;;5028575;28;8840;-81
2023/08/22 09:14:12;;;;;;;;;5.20;5.20;;;;;;;;5028216;28;8852;-87
2023/08/22 09:16:40;;;;;;;;;3.20;3.20;;;;;;;;5027904;28;8987;-77
2023/08/22 09:19:07;;;;;;;;;3.20;3.20;;;;;;;;5028980;28;8902;-83
2023/08/22 09:21:35;;;;;;;;;4.00;2.80;;;;;;;;5028349;28;8856;-78
2023/08/22 09:24:09;;;;;;;;;4.00;4.00;;;;;;;;5027979;28;8868;-78
2023/08/22 09:26:39;;;;;;;;;3.00;1.20;;;;;;;;5027479;28;8950;-80
2023/08/22 09:29:07;;;;;;;;;3.40;0.60;;;;;;;;5028638;28;9741;-80
2023/08/22 09:31:35;;;;;;;;;5.20;2.20;;;;;;;;5027180;28;8793;-78
2023/08/22 09:34:09;;;;;;;;;4.20;4.20;;;;;;;;5027837;28;8926;-79
2023/08/22 09:36:45;;;;;;;;;6.40;3.40;;;;;;;;5027325;28;8864;-80
2023/08/22 09:39:15;;;;;;;;;2.40;2.40;;;;;;;;5028247;28;8878;-80
2023/08/22 09:41:43;;;;;;;;;2.20;2.20;;;;;;;;5027721;28;9636;-80
2023/08/22 09:44:11;;;;;;;;;3.40;3.40;;;;;;;;5027688;28;8864;-80
2023/08/22 09:46:41;;;;;;;;;2.60;2.60;;;;;;;;5017904;28;8888;-80
2023/08/22 09:49:12;;;;;;;;;2.40;2.40;;;;;;;;5030927;28;8933;-80
2023/08/22 09:51:42;;;;;;;;;4.20;4.00;;;;;;;;5033366;28;8884;-79
2023/08/22 09:54:10;;;;;;;;;1.00;1.00;;;;;;;;5033650;28;8865;-80
2023/08/22 09:56:38;;;;;;;;;2.40;0.60;;;;;;;;5033882;28;8941;-80
2023/08/22 09:59:06;;;;;;;;;1.80;1.80;;;;;;;;5032614;28;8860;-80
2023/08/22 10:01:35;;;;;;;;;1.00;1.00;;;;;;;;5030162;28;8907;-82
2023/08/22 10:04:04;;;;;;;;;1.00;1.00;;;;;;;;5026867;28;8872;-79
2023/08/22 10:06:32;;;;;;;;;1.80;0.40;;;;;;;;5028113;28;9663;-81
2023/08/22 10:09:07;;;;;;;;;0.00;0.00;;;;;;;;5027930;28;8860;-80
2023/08/22 10:11:36;;;;;;;;;1.00;1.00;;;;;;;;5027152;28;8873;-81
2023/08/22 10:14:04;;;;;;;;;2.00;2.00;;;;;;;;5027362;28;8872;-80
2023/08/22 10:16:32;;;;;;;;;1.00;1.00;;;;;;;;5027468;28;9029;-80
2023/08/22 10:19:05;;;;;;;;;2.20;1.00;;;;;;;;5028277;28;8910;-80
2023/08/22 10:21:43;;;;;;;;;0.80;0.80;;;;;;;;5031430;28;8872;-83
2023/08/22 10:24:23;;;;;;;;;0.80;0.80;;;;;;;;5031276;28;8872;-86
2023/08/22 10:27:06;;;;;;;;;0.40;0.40;;;;;;;;5031865;28;8860;-80
2023/08/22 10:29:35;;;;;;;;;1.00;1.00;;;;;;;;5030088;28;8868;-86
2023/08/22 10:32:21;;;;;;;;;3.00;2.00;;;;;;;;5036717;28;8826;-83
2023/08/22 10:35:29;;;;;;;;;1.40;1.40;;;;;;;;5021775;28;8928;-84
2023/08/22 10:37:57;;;;;;;;;1.60;1.60;;;;;;;;5027938;28;8837;-84
2023/08/22 10:40:31;;;;;;;;;1.00;1.00;;;;;;;;5027679;28;8870;-84
2023/08/22 10:43:07;;;;;;;;;2.00;0.60;;;;;;;;5025264;28;8844;-85
2023/08/22 10:45:42;;;;;;;;;4.20;0.00;;;;;;;;5027178;28;8862;-83
2023/08/22 10:48:11;;;;;;;;;1.00;1.00;;;;;;;;5027159;28;9667;-87
2023/08/22 10:50:42;;;;;;;;;1.40;1.40;;;;;;;;5023865;28;9570;-83
2023/08/22 10:53:18;;;;;;;;;1.00;0.80;;;;;;;;5019739;28;8856;-86
2023/08/22 10:55:50;;;;;;;;;1.00;0.00;;;;;;;;5026999;28;8840;-79
2023/08/22 10:58:41;;;;;;;;;1.00;1.00;;;;;;;;5027442;28;8850;-79
2023/08/22 11:01:10;;;;;;;;;7.60;4.80;;;;;;;;5026563;28;8827;-79
2023/08/22 11:03:38;;;;;;;;;2.20;1.00;;;;;;;;5027496;28;8978;-84
2023/08/22 11:06:17;;;;;;;;;0.80;0.80;;;;;;;;5026063;28;8909;-80
2023/08/22 11:08:47;;;;;;;;;0.80;0.80;;;;;;;;5026742;28;8856;-79
2023/08/22 11:11:19;;;;;;;;;0.00;0.00;;;;;;;;5027000;28;8887;-82
2023/08/22 11:13:47;;;;;;;;;1.00;0.00;;;;;;;;5023744;28;8890;-81
2023/08/22 11:16:19;;;;;;;;;0.60;0.60;;;;;;;;5026573;28;8880;-81
2023/08/22 11:18:51;;;;;;;;;1.60;1.60;;;;;;;;5028151;28;8907;-82
2023/08/22 11:21:21;;;;;;;;;0.00;0.00;;;;;;;;5028337;28;8833;-85
2023/08/22 11:23:52;;;;;;;;;0.00;0.00;;;;;;;;5031524;28;8848;-80
2023/08/22 11:26:29;;;;;;;;;2.20;0.80;;;;;;;;5034634;28;8854;-84
2023/08/22 11:29:38;;;;;;;;;0.60;0.60;;;;;;;;5035306;28;8851;-85
2023/08/22 11:32:05;;;;;;;;;1.60;1.00;;;;;;;;5007426;28;8813;-84
2023/08/22 11:34:35;;;;;;;;;0.00;0.00;;;;;;;;5034358;28;8868;-83
2023/08/22 11:37:10;;;;;;;;;0.00;0.00;;;;;;;;5031939;28;8860;-86
2023/08/22 11:39:41;;;;;;;;;1.80;0.00;;;;;;;;5030132;28;8867;-82
2023/08/22 11:42:13;;;;;;;;;1.20;0.00;;;;;;;;5029863;28;8864;-83
2023/08/22 11:44:56;;;;;;;;;0.00;0.00;;;;;;;;5029560;28;8882;-80
2023/08/22 11:47:23;;;;;;;;;0.00;0.00;;;;;;;;5029630;28;8888;-83
2023/08/22 11:49:52;;;;;;;;;0.00;0.00;;;;;;;;5030569;28;8941;-86
2023/08/22 11:52:21;;;;;;;;;2.00;1.40;;;;;;;;5029798;28;8917;-81
2023/08/22 11:54:48;;;;;;;;;0.00;0.00;;;;;;;;5030231;28;8902;-86
2023/08/22 11:57:22;;;;;;;;;20.20;12.00;;;;;;;;5029875;28;8871;-84
2023/08/22 11:59:49;;;;;;;;;0.40;0.40;;;;;;;;5030671;28;8930;-83
2023/08/22 12:02:23;;;;;;;;;0.20;0.00;;;;;;;;5022665;28;8793;-84
2023/08/22 12:04:54;;;;;;;;;0.00;0.00;;;;;;;;5032139;28;8876;-83
2023/08/22 12:07:22;;;;;;;;;7.20;6.00;;;;;;;;5030440;28;8910;-81
2023/08/22 12:09:59;;;;;;;;;1.20;1.00;;;;;;;;5030300;28;8864;-80
2023/08/22 12:12:29;;;;;;;;;3.80;2.00;;;;;;;;5028386;28;8887;-81
2023/08/22 12:14:56;;;;;;;;;0.00;0.00;;;;;;;;5029764;28;8872;-82
2023/08/22 12:17:23;;;;;;;;;68.80;46.20;;;;;;;;5029743;28;8860;-84
2023/08/22 12:19:50;;;;;;;;;0.00;0.00;;;;;;;;5030396;28;8868;-85
2023/08/22 12:22:20;;;;;;;;;0.00;0.00;;;;;;;;5019904;28;8868;-86
2023/08/22 12:24:49;;;;;;;;;1.00;1.00;;;;;;;;5030555;28;8852;-84
2023/08/22 12:27:18;;;;;;;;;0.00;0.00;;;;;;;;5031197;28;8914;-86
2023/08/22 12:29:49;;;;;;;;;1.00;1.00;;;;;;;;5029266;28;8875;-84
2023/08/22 12:32:18;;;;;;;;;0.00;0.00;;;;;;;;5028535;28;8796;-86
2023/08/22 12:34:47;;;;;;;;;1.00;0.40;;;;;;;;5028619;28;8955;-83
2023/08/22 12:37:14;;;;;;;;;1.80;0.60;;;;;;;;5028864;28;8863;-82
2023/08/22 12:39:41;;;;;;;;;0.80;0.80;;;;;;;;5029081;28;8979;-82
2023/08/22 12:42:08;;;;;;;;;2.20;1.00;;;;;;;;5030616;28;8852;-84
2023/08/22 12:44:38;;;;;;;;;0.80;0.80;;;;;;;;5031324;28;8856;-83
2023/08/22 12:47:09;;;;;;;;;1.00;1.00;;;;;;;;5029630;28;9021;-83
2023/08/22 12:49:40;;;;;;;;;0.00;0.00;;;;;;;;5029152;28;8975;-84
2023/08/22 12:52:07;;;;;;;;;0.00;0.00;;;;;;;;5030014;28;8856;-87
2023/08/22 12:54:35;;;;;;;;;1.00;1.00;;;;;;;;5030936;28;8836;-88
2023/08/22 12:57:06;;;;;;;;;0.00;0.00;;;;;;;;5031929;28;8856;-88
2023/08/22 12:59:36;;;;;;;;;3.20;2.00;;;;;;;;5019874;28;8959;-87
2023/08/22 13:02:05;;;;;;;;;1.40;1.40;;;;;;;;5033253;28;8867;-88
2023/08/22 13:04:34;;;;;;;;;0.00;0.00;;;;;;;;5034763;28;8888;-90
2023/08/22 13:07:04;;;;;;;;;0.00;0.00;;;;;;;;5033595;28;8890;-88
2023/08/22 13:09:41;;;;;;;;;0.40;0.40;;;;;;;;5023923;28;8872;-88
2023/08/22 13:12:11;;;;;;;;;0.80;0.80;;;;;;;;5029987;28;9614;-86
2023/08/22 13:14:41;;;;;;;;;0.00;0.00;;;;;;;;5028356;28;8853;-83
2023/08/22 13:17:08;;;;;;;;;0.00;0.00;;;;;;;;5027770;28;8878;-84
2023/08/22 13:19:37;;;;;;;;;0.00;0.00;;;;;;;;5028379;28;8955;-79
2023/08/22 13:22:04;;;;;;;;;1.00;1.00;;;;;;;;5028426;28;8853;-82
2023/08/22 13:24:34;;;;;;;;;0.60;0.60;;;;;;;;5030474;28;9022;-81
2023/08/22 13:27:04;;;;;;;;;1.20;1.20;;;;;;;;5029527;28;9006;-83
2023/08/22 13:29:32;;;;;;;;;1.00;1.00;;;;;;;;5028872;28;8864;-81
2023/08/22 13:32:08;;;;;;;;;0.20;0.20;;;;;;;;5028697;28;8785;-82
2023/08/22 13:34:36;;;;;;;;;0.80;0.80;;;;;;;;5028258;28;8891;-83
2023/08/22 13:37:14;;;;;;;;;1.00;1.00;;;;;;;;5028293;28;9012;-84
2023/08/22 13:39:41;;;;;;;;;1.00;1.00;;;;;;;;5028011;28;9732;-79
2023/08/22 13:42:08;;;;;;;;;1.00;1.00;;;;;;;;5028724;28;8852;-85
2023/08/22 13:44:36;;;;;;;;;0.40;0.40;;;;;;;;5028023;28;8895;-83
2023/08/22 13:47:05;;;;;;;;;1.00;1.00;;;;;;;;5027540;28;8865;-82
2023/08/22 13:49:36;;;;;;;;;1.60;1.60;;;;;;;;5029038;28;8902;-83
2023/08/22 13:52:04;;;;;;;;;1.00;1.00;;;;;;;;5029063;28;8958;-87
2023/08/22 13:54:34;;;;;;;;;1.00;1.00;;;;;;;;5023792;28;8875;-85
2023/08/22 13:57:04;;;;;;;;;1.00;1.00;;;;;;;;5023423;28;8875;-84
2023/08/22 13:59:35;;;;;;;;;3.00;1.20;;;;;;;;5018334;28;8888;-86
2023/08/22 14:02:05;;;;;;;;;3.00;1.00;;;;;;;;5029928;28;8806;-86
2023/08/22 14:04:36;;;;;;;;;2.40;0.40;;;;;;;;5033635;28;8861;-91
2023/08/22 14:07:04;;;;;;;;;1.00;1.00;;;;;;;;5033122;28;8894;-87
2023/08/22 14:09:31;;;;;;;;;1.60;1.60;;;;;;;;5029876;28;8886;-87
2023/08/22 14:11:59;;;;;;;;;3.00;1.40;;;;;;;;5030854;28;8871;-87
2023/08/22 14:14:26;;;;;;;;;0.20;0.20;;;;;;;;5029693;28;8856;-86
2023/08/22 14:16:53;;;;;;;;;0.80;0.80;;;;;;;;5028876;28;9395;-86
2023/08/22 14:19:20;;;;;;;;;1.00;1.00;;;;;;;;5028621;28;8895;-87
2023/08/22 14:21:49;;;;;;;;;3.00;1.60;;;;;;;;5028270;28;8848;-82
2023/08/22 14:24:16;;;;;;;;;1.00;1.00;;;;;;;;5027274;28;8871;-80
2023/08/22 14:26:43;;;;;;;;;1.00;1.00;;;;;;;;5027389;28;8844;-83
2023/08/22 14:29:11;;;;;;;;;0.80;0.80;;;;;;;;5028290;28;8852;-81
2023/08/22 14:31:38;;;;;;;;;1.60;1.20;;;;;;;;5028041;28;8789;-81
2023/08/22 14:34:05;;;;;;;;;0.00;0.00;;;;;;;;5028865;28;8868;-81
2023/08/22 14:36:32;;;;;;;;;0.00;0.00;;;;;;;;5030487;28;8892;-80
2023/08/22 14:39:04;;;;;;;;;0.00;0.00;;;;;;;;5031653;28;8875;-81
2023/08/22 14:41:31;;;;;;;;;0.25;0.25;;;;;;;;5030973;28;8863;-81
2023/08/22 14:43:58;;;;;;;;;2.00;1.00;;;;;;;;5030784;28;8864;-82
2023/08/22 14:46:26;;;;;;;;;0.00;0.00;;;;;;;;5028132;28;8884;-82
2023/08/22 14:48:54;;;;;;;;;1.00;1.00;;;;;;;;5027783;28;9013;-82
2023/08/22 14:51:22;;;;;;;;;1.80;1.00;;;;;;;;5026406;28;8880;-82
2023/08/22 14:53:51;;;;;;;;;3.80;2.00;;;;;;;;5027062;28;8890;-82
2023/08/22 14:56:19;;;;;;;;;1.00;1.00;;;;;;;;5027445;28;8837;-83
2023/08/22 14:58:50;;;;;;;;;4.20;2.80;;;;;;;;5030830;28;8868;-82
2023/08/22 15:01:18;;;;;;;;;0.00;0.00;;;;;;;;5019877;28;8794;-82
2023/08/22 15:03:45;;;;;;;;;1.00;1.00;;;;;;;;5030582;28;8887;-82
2023/08/22 15:06:13;;;;;;;;;0.60;0.60;;;;;;;;5030624;28;8960;-83